Wetterdaten: Freitag, 03.04.2015
Datum Zeit Temp. A. Feuchte A. Luftdruck Regen Wind Richtung Richtung Sonnenschein ET UV Solar Taupunkt Windchill Windben Empfang
03.04.2015 00:00 0,3 C 82 % 1018,9 hPa 0,0 l/m 8,3 km/h (2 Bft) W-SW 256 0 min 0,000 mm 0,0 UV-I 0 W/m -2,4 C -1,6 C 11,9 km/h (2 Bft) 0,00 %
03.04.2015 00:15 0,5 C 81 % 1018,9 hPa 0,0 l/m 9,7 km/h (2 Bft) W-SW 256 0 min 0,000 mm 0,0 UV-I 0 W/m -2,4 C -2,6 C 11,9 km/h (2 Bft) 0,00 %
03.04.2015 00:30 0,5 C 80 % 1019,2 hPa 0,0 l/m 4,0 km/h (1 Bft) SW 225 0 min 0,000 mm 0,0 UV-I 0 W/m -2,5 C 0,5 C 7,9 km/h (2 Bft) 0,00 %
03.04.2015 00:45 0,5 C 79 % 1019,1 hPa 0,0 l/m 4,0 km/h (1 Bft) W 268 0 min 0,000 mm 0,0 UV-I 0 W/m -2,7 C 0,5 C 7,9 km/h (2 Bft) 0,00 %
03.04.2015 01:00 0,5 C 77 % 1019,3 hPa 0,0 l/m 4,0 km/h (1 Bft) W-SW 256 0 min 0,000 mm 0,0 UV-I 0 W/m -3,1 C 0,5 C 7,9 km/h (2 Bft) 0,00 %
03.04.2015 01:15 0,5 C 76 % 1019,8 hPa 0,0 l/m 10,8 km/h (2 Bft) W-SW 252 0 min 0,000 mm 0,0 UV-I 0 W/m -3,2 C -3,5 C 15,8 km/h (3 Bft) 0,00 %
03.04.2015 01:30 0,7 C 77 % 1020,0 hPa 0,0 l/m 13,3 km/h (3 Bft) W-SW 255 0 min 0,000 mm 0,0 UV-I 0 W/m -2,9 C -5,1 C 15,8 km/h (3 Bft) 0,00 %
03.04.2015 01:45 0,7 C 77 % 1020,1 hPa 0,0 l/m 0,0 km/h (0 Bft) SO 133 0 min 0,000 mm 0,0 UV-I 0 W/m -2,9 C 0,7 C 0,0 km/h (0 Bft) 0,00 %
03.04.2015 02:00 0,7 C 75 % 1020,3 hPa 0,0 l/m 7,2 km/h (2 Bft) W-SW 252 0 min 0,000 mm 0,0 UV-I 0 W/m -3,2 C -0,1 C 11,9 km/h (2 Bft) 0,00 %
03.04.2015 02:15 0,7 C 75 % 1020,3 hPa 0,0 l/m 10,8 km/h (2 Bft) SW 231 0 min 0,000 mm 0,0 UV-I 0 W/m -3,2 C -3,3 C 19,8 km/h (3 Bft) 0,00 %
03.04.2015 02:30 0,5 C 74 % 1020,2 hPa 0,0 l/m 1,8 km/h (1 Bft) S 189 0 min 0,000 mm 0,0 UV-I 0 W/m -3,6 C 0,5 C 7,9 km/h (2 Bft) 0,00 %
03.04.2015 02:45 0,3 C 74 % 1020,6 hPa 0,0 l/m 8,3 km/h (2 Bft) W-SW 253 0 min 0,000 mm 0,0 UV-I 0 W/m -3,8 C -1,6 C 11,9 km/h (2 Bft) 0,00 %
03.04.2015 03:00 0,2 C 74 % 1020,5 hPa 0,0 l/m 7,9 km/h (2 Bft) W-SW 256 0 min 0,000 mm 0,0 UV-I 0 W/m -3,9 C -1,3 C 11,9 km/h (2 Bft) 0,00 %
03.04.2015 03:15 0,1 C 73 % 1020,8 hPa 0,0 l/m 7,2 km/h (2 Bft) W 272 0 min 0,000 mm 0,0 UV-I 0 W/m -4,2 C -0,7 C 11,9 km/h (2 Bft) 0,00 %
03.04.2015 03:30 0,0 C 73 % 1020,8 hPa 0,0 l/m 4,3 km/h (1 Bft) W-SW 252 0 min 0,000 mm 0,0 UV-I 0 W/m -4,2 C 0,0 C 7,9 km/h (2 Bft) 0,00 %
03.04.2015 03:45 0,0 C 73 % 1021,0 hPa 0,0 l/m 10,4 km/h (2 Bft) W 274 0 min 0,000 mm 0,0 UV-I 0 W/m -4,2 C -3,8 C 15,8 km/h (3 Bft) 0,00 %
03.04.2015 04:00 0,0 C 72 % 1021,2 hPa 0,0 l/m 4,3 km/h (1 Bft) W-SW 253 0 min 0,000 mm 0,0 UV-I 0 W/m -4,4 C 0,0 C 7,9 km/h (2 Bft) 0,00 %
03.04.2015 04:15 0,0 C 72 % 1021,4 hPa 0,0 l/m 7,9 km/h (2 Bft) W-SW 255 0 min 0,000 mm 0,0 UV-I 0 W/m -4,4 C -1,5 C 11,9 km/h (2 Bft) 0,00 %
03.04.2015 04:30 -0,1 C 73 % 1021,6 hPa 0,0 l/m 4,3 km/h (1 Bft) W-SW 253 0 min 0,000 mm 0,0 UV-I 0 W/m -4,3 C -0,1 C 7,9 km/h (2 Bft) 0,00 %
03.04.2015 04:45 -0,1 C 73 % 1021,5 hPa 0,0 l/m 4,7 km/h (1 Bft) W-SW 255 0 min 0,000 mm 0,0 UV-I 0 W/m -4,3 C -0,1 C 7,9 km/h (2 Bft) 0,00 %
03.04.2015 05:00 -0,2 C 73 % 1021,5 hPa 0,0 l/m 2,9 km/h (1 Bft) N-NO 17 0 min 0,000 mm 0,0 UV-I 0 W/m -4,4 C -0,2 C 7,9 km/h (2 Bft) 0,00 %
03.04.2015 05:15 -0,3 C 73 % 1021,6 hPa 0,0 l/m 5,8 km/h (2 Bft) W-SW 252 0 min 0,000 mm 0,0 UV-I 0 W/m -4,5 C -0,3 C 7,9 km/h (2 Bft) 0,00 %
03.04.2015 05:30 -0,3 C 73 % 1021,7 hPa 0,0 l/m 0,7 km/h (0 Bft) SW 229 0 min 0,000 mm 0,0 UV-I 0 W/m -4,5 C -0,3 C 4,0 km/h (1 Bft) 0,00 %
03.04.2015 05:45 -0,4 C 73 % 1021,7 hPa 0,0 l/m 2,9 km/h (1 Bft) S 184 0 min 0,000 mm 0,0 UV-I 0 W/m -4,6 C -0,4 C 7,9 km/h (2 Bft) 0,00 %
03.04.2015 06:00 -0,1 C 71 % 1021,8 hPa 0,0 l/m 2,9 km/h (1 Bft) W-NW 299 0 min 0,000 mm 0,0 UV-I 0 W/m -4,7 C -0,1 C 4,0 km/h (1 Bft) 0,00 %
03.04.2015 06:15 0,1 C 70 % 1021,9 hPa 0,0 l/m 6,8 km/h (2 Bft) W-SW 250 0 min 0,000 mm 0,0 UV-I 0 W/m -4,7 C -0,3 C 11,9 km/h (2 Bft) 0,00 %
03.04.2015 06:30 0,3 C 67 % 1021,7 hPa 0,0 l/m 1,4 km/h (1 Bft) S 182 0 min 0,000 mm 0,0 UV-I 0 W/m -5,1 C 0,3 C 4,0 km/h (1 Bft) 0,00 %
03.04.2015 06:45 0,2 C 68 % 1021,9 hPa 0,0 l/m 1,4 km/h (1 Bft) W-SW 252 0 min 0,000 mm 0,0 UV-I 0 W/m -5,0 C 0,2 C 4,0 km/h (1 Bft) 0,00 %
03.04.2015 07:00 0,1 C 69 % 1022,2 hPa 0,0 l/m 0,0 km/h (0 Bft) O-SO 105 0 min 0,000 mm 0,0 UV-I 6 W/m -4,9 C 0,1 C 0,0 km/h (0 Bft) 0,00 %
03.04.2015 07:15 0,0 C 72 % 1022,4 hPa 0,0 l/m 1,4 km/h (1 Bft) W-SW 246 0 min 0,000 mm 0,0 UV-I 18 W/m -4,4 C 0,0 C 4,0 km/h (1 Bft) 0,00 %
03.04.2015 07:30 0,0 C 74 % 1022,6 hPa 0,0 l/m 0,4 km/h (0 Bft) NW 313 0 min 0,000 mm 0,0 UV-I 29 W/m -4,1 C 0,0 C 4,0 km/h (1 Bft) 0,00 %
03.04.2015 07:45 0,2 C 74 % 1022,8 hPa 0,0 l/m 0,0 km/h (0 Bft) O-SO 122 0 min 0,000 mm 1,0 UV-I 45 W/m -3,9 C 0,2 C 0,0 km/h (0 Bft) 0,00 %
03.04.2015 08:00 0,6 C 73 % 1022,7 hPa 0,0 l/m 0,0 km/h (0 Bft) N-NO 25 0 min 0,000 mm 1,0 UV-I 82 W/m -3,7 C 0,6 C 0,0 km/h (0 Bft) 0,00 %
03.04.2015 08:15 1,1 C 71 % 1022,9 hPa 0,0 l/m 0,0 km/h (0 Bft) S-SW 198 0 min 0,000 mm 1,0 UV-I 109 W/m -3,6 C 1,1 C 0,0 km/h (0 Bft) 0,00 %
03.04.2015 08:30 1,6 C 68 % 1022,8 hPa 0,0 l/m 1,4 km/h (1 Bft) W-SW 255 0 min 0,000 mm 1,0 UV-I 154 W/m -3,7 C 1,6 C 4,0 km/h (1 Bft) 0,00 %
03.04.2015 08:45 2,6 C 69 % 1022,7 hPa 0,0 l/m 0,0 km/h (0 Bft) SW 229 0 min 0,000 mm 2,0 UV-I 162 W/m -2,5 C 2,6 C 0,0 km/h (0 Bft) 0,00 %
03.04.2015 09:00 2,1 C 64 % 1022,8 hPa 0,0 l/m 7,2 km/h (2 Bft) W-NW 291 0 min 0,000 mm 2,0 UV-I 130 W/m -4,0 C 1,3 C 11,9 km/h (2 Bft) 0,00 %
03.04.2015 09:15 2,4 C 67 % 1022,5 hPa 0,0 l/m 0,4 km/h (0 Bft) S-SW 212 0 min 0,000 mm 2,0 UV-I 113 W/m -3,1 C 2,4 C 4,0 km/h (1 Bft) 0,00 %
03.04.2015 09:30 3,2 C 64 % 1022,6 hPa 0,0 l/m 6,5 km/h (2 Bft) W-SW 256 0 min 0,000 mm 2,0 UV-I 195 W/m -2,9 C 3,1 C 7,9 km/h (2 Bft) 0,00 %
03.04.2015 09:45 3,6 C 63 % 1022,4 hPa 0,0 l/m 2,9 km/h (1 Bft) W-SW 253 0 min 0,000 mm 2,0 UV-I 161 W/m -2,8 C 3,6 C 4,0 km/h (1 Bft) 0,00 %
03.04.2015 10:00 4,0 C 62 % 1022,2 hPa 0,0 l/m 4,7 km/h (1 Bft) W 273 0 min 0,000 mm 2,0 UV-I 232 W/m -2,6 C 4,0 C 7,9 km/h (2 Bft) 0,00 %
03.04.2015 10:15 3,7 C 61 % 1022,3 hPa 0,0 l/m 3,2 km/h (1 Bft) W-SW 256 0 min 0,000 mm 3,0 UV-I 300 W/m -3,1 C 3,7 C 7,9 km/h (2 Bft) 0,00 %
03.04.2015 10:30 4,8 C 58 % 1022,0 hPa 0,0 l/m 9,0 km/h (2 Bft) W-SW 255 0 min 0,000 mm 4,0 UV-I 198 W/m -2,7 C 2,6 C 11,9 km/h (2 Bft) 0,00 %
03.04.2015 10:45 5,0 C 55 % 1021,8 hPa 0,0 l/m 2,2 km/h (1 Bft) W-NW 301 15 min 0,000 mm 2,0 UV-I 363 W/m -3,3 C 5,0 C 4,0 km/h (1 Bft) 0,00 %
03.04.2015 11:00 5,3 C 53 % 1021,6 hPa 0,0 l/m 4,0 km/h (1 Bft) S-SW 193 0 min 0,000 mm 3,0 UV-I 189 W/m -3,5 C 5,3 C 7,9 km/h (2 Bft) 0,00 %
03.04.2015 11:15 5,2 C 52 % 1021,5 hPa 0,0 l/m 2,9 km/h (1 Bft) W-NW 296 15 min 0,000 mm 2,0 UV-I 461 W/m -3,8 C 5,2 C 4,0 km/h (1 Bft) 0,00 %
03.04.2015 11:30 4,9 C 52 % 1021,5 hPa 0,0 l/m 0,4 km/h (0 Bft) W-SW 256 0 min 0,000 mm 2,0 UV-I 173 W/m -4,1 C 4,9 C 4,0 km/h (1 Bft) 0,00 %
03.04.2015 11:45 4,7 C 50 % 1021,5 hPa 0,0 l/m 4,7 km/h (1 Bft) W-SW 253 0 min 0,000 mm 3,0 UV-I 199 W/m -4,8 C 4,7 C 7,9 km/h (2 Bft) 0,00 %
03.04.2015 12:00 5,3 C 46 % 1021,1 hPa 0,0 l/m 9,7 km/h (2 Bft) W-SW 251 15 min 0,000 mm 3,0 UV-I 597 W/m -5,4 C 2,6 C 11,9 km/h (2 Bft) 0,00 %
03.04.2015 12:15 6,3 C 47 % 1020,7 hPa 0,0 l/m 9,7 km/h (2 Bft) W-SW 256 15 min 0,000 mm 5,0 UV-I 679 W/m -4,2 C 3,7 C 15,8 km/h (3 Bft) 0,00 %
03.04.2015 12:30 6,6 C 46 % 1020,7 hPa 0,0 l/m 15,8 km/h (3 Bft) W-SW 255 0 min 0,000 mm 4,0 UV-I 267 W/m -4,2 C 0,6 C 19,8 km/h (3 Bft) 0,00 %
03.04.2015 12:45 6,0 C 47 % 1020,4 hPa 0,0 l/m 10,4 km/h (2 Bft) W-SW 255 15 min 0,000 mm 5,0 UV-I 771 W/m -4,4 C 2,9 C 11,9 km/h (2 Bft) 0,00 %
03.04.2015 13:00 8,0 C 44 % 1020,1 hPa 0,0 l/m 5,8 km/h (2 Bft) SO 136 15 min 0,000 mm 6,0 UV-I 414 W/m -3,5 C 8,0 C 7,9 km/h (2 Bft) 0,00 %
03.04.2015 13:15 7,9 C 44 % 1019,9 hPa 0,0 l/m 0,4 km/h (0 Bft) NW 309 15 min 0,000 mm 5,0 UV-I 806 W/m -3,6 C 7,9 C 4,0 km/h (1 Bft) 0,00 %
03.04.2015 13:30 7,4 C 45 % 1019,9 hPa 0,0 l/m 8,3 km/h (2 Bft) SW 220 15 min 0,000 mm 3,0 UV-I 650 W/m -3,7 C 5,9 C 15,8 km/h (3 Bft) 0,00 %
03.04.2015 13:45 7,4 C 43 % 1019,8 hPa 0,0 l/m 4,0 km/h (1 Bft) W-SW 256 15 min 0,000 mm 3,0 UV-I 791 W/m -4,3 C 7,4 C 4,0 km/h (1 Bft) 0,00 %
03.04.2015 14:00 7,8 C 43 % 1019,4 hPa 0,0 l/m 1,4 km/h (1 Bft) W-SW 250 15 min 0,000 mm 2,0 UV-I 818 W/m -4,0 C 7,8 C 4,0 km/h (1 Bft) 0,00 %
03.04.2015 14:15 8,1 C 46 % 1018,9 hPa 0,0 l/m 3,2 km/h (1 Bft) W-NW 291 15 min 0,000 mm 3,0 UV-I 753 W/m -2,8 C 8,1 C 7,9 km/h (2 Bft) 0,00 %
03.04.2015 14:30 7,2 C 48 % 1018,8 hPa 0,0 l/m 4,3 km/h (1 Bft) NW 307 0 min 0,000 mm 2,0 UV-I 265 W/m -3,1 C 7,2 C 7,9 km/h (2 Bft) 0,00 %
03.04.2015 14:45 7,4 C 43 % 1018,4 hPa 0,0 l/m 9,0 km/h (2 Bft) W-SW 255 15 min 0,000 mm 2,0 UV-I 671 W/m -4,3 C 5,4 C 11,9 km/h (2 Bft) 0,00 %
03.04.2015 15:00 7,9 C 43 % 1018,1 hPa 0,0 l/m 1,4 km/h (1 Bft) W-NW 303 15 min 0,000 mm 2,0 UV-I 714 W/m -3,9 C 7,9 C 4,0 km/h (1 Bft) 0,00 %
03.04.2015 15:15 7,8 C 43 % 1017,8 hPa 0,0 l/m 4,0 km/h (1 Bft) N-NW 330 15 min 0,000 mm 2,0 UV-I 710 W/m -4,0 C 7,8 C 7,9 km/h (2 Bft) 0,00 %
03.04.2015 15:30 7,3 C 45 % 1017,8 hPa 0,0 l/m 0,0 km/h (0 Bft) SW 230 15 min 0,000 mm 2,0 UV-I 715 W/m -3,8 C 7,3 C 0,0 km/h (0 Bft) 0,00 %
03.04.2015 15:45 7,6 C 44 % 1017,6 hPa 0,0 l/m 5,8 km/h (2 Bft) W-SW 255 15 min 0,000 mm 2,0 UV-I 710 W/m -3,9 C 7,6 C 7,9 km/h (2 Bft) 0,00 %
03.04.2015 16:00 7,9 C 43 % 1017,1 hPa 0,0 l/m 0,0 km/h (0 Bft) S 184 15 min 0,000 mm 2,0 UV-I 705 W/m -3,9 C 7,9 C 0,0 km/h (0 Bft) 0,00 %
03.04.2015 16:15 8,3 C 42 % 1016,9 hPa 0,0 l/m 0,0 km/h (0 Bft) N-NW 332 15 min 0,000 mm 2,0 UV-I 700 W/m -3,8 C 8,3 C 0,0 km/h (0 Bft) 0,00 %
03.04.2015 16:30 7,8 C 43 % 1016,8 hPa 0,0 l/m 6,8 km/h (2 Bft) NW 308 15 min 0,000 mm 2,0 UV-I 680 W/m -4,0 C 7,5 C 11,9 km/h (2 Bft) 0,00 %
03.04.2015 16:45 8,3 C 43 % 1016,4 hPa 0,0 l/m 0,7 km/h (0 Bft) S-SW 199 15 min 0,000 mm 2,0 UV-I 670 W/m -3,5 C 8,3 C 4,0 km/h (1 Bft) 0,00 %
03.04.2015 17:00 8,5 C 39 % 1016,2 hPa 0,0 l/m 14,4 km/h (3 Bft) W-SW 254 15 min 0,000 mm 1,0 UV-I 660 W/m -4,6 C 3,6 C 19,8 km/h (3 Bft) 0,00 %
03.04.2015 17:15 8,3 C 41 % 1016,0 hPa 0,0 l/m 0,0 km/h (0 Bft) SW 214 15 min 0,000 mm 1,0 UV-I 555 W/m -4,2 C 8,3 C 0,0 km/h (0 Bft) 0,00 %
03.04.2015 17:30 9,0 C 38 % 1015,9 hPa 0,0 l/m 2,9 km/h (1 Bft) SW 224 15 min 0,000 mm 1,0 UV-I 523 W/m -4,5 C 9,0 C 4,0 km/h (1 Bft) 0,00 %
03.04.2015 17:45 9,0 C 41 % 1015,8 hPa 0,0 l/m 1,4 km/h (1 Bft) W 267 15 min 0,000 mm 1,0 UV-I 523 W/m -3,5 C 9,0 C 4,0 km/h (1 Bft) 0,00 %
03.04.2015 18:00 8,8 C 38 % 1015,6 hPa 0,0 l/m 0,0 km/h (0 Bft) NW 309 15 min 0,000 mm 1,0 UV-I 478 W/m -4,7 C 8,8 C 0,0 km/h (0 Bft) 0,00 %
03.04.2015 18:15 8,9 C 41 % 1015,4 hPa 0,0 l/m 1,4 km/h (1 Bft) W-SW 255 15 min 0,000 mm 1,0 UV-I 440 W/m -3,6 C 8,9 C 4,0 km/h (1 Bft) 0,00 %
03.04.2015 18:30 8,3 C 42 % 1015,7 hPa 0,0 l/m 0,0 km/h (0 Bft) SW 217 15 min 0,000 mm 1,0 UV-I 348 W/m -3,8 C 8,3 C 0,0 km/h (0 Bft) 0,00 %
03.04.2015 18:45 7,7 C 45 % 1015,6 hPa 0,0 l/m 0,0 km/h (0 Bft) W-SW 252 15 min 0,000 mm 0,0 UV-I 240 W/m -3,5 C 7,7 C 0,0 km/h (0 Bft) 0,00 %
03.04.2015 19:00 7,1 C 48 % 1015,8 hPa 0,0 l/m 0,0 km/h (0 Bft) S-SW 199 15 min 0,000 mm 0,0 UV-I 151 W/m -3,2 C 7,1 C 0,0 km/h (0 Bft) 0,00 %
03.04.2015 19:15 6,3 C 49 % 1015,8 hPa 0,0 l/m 0,0 km/h (0 Bft) S-SW 198 15 min 0,000 mm 0,0 UV-I 45 W/m -3,6 C 6,3 C 0,0 km/h (0 Bft) 0,00 %
03.04.2015 19:30 5,2 C 52 % 1016,1 hPa 0,0 l/m 0,0 km/h (0 Bft) S-SW 206 0 min 0,000 mm 0,0 UV-I 5 W/m -3,8 C 5,2 C 0,0 km/h (0 Bft) 0,00 %
03.04.2015 19:45 4,5 C 55 % 1016,3 hPa 0,0 l/m 0,0 km/h (0 Bft) S-SW 192 0 min 0,000 mm 0,0 UV-I 0 W/m -3,7 C 4,5 C 0,0 km/h (0 Bft) 0,00 %
03.04.2015 20:00 3,8 C 55 % 1016,4 hPa 0,0 l/m 0,0 km/h (0 Bft) S 188 0 min 0,000 mm 0,0 UV-I 0 W/m -4,4 C 3,8 C 0,0 km/h (0 Bft) 0,00 %
03.04.2015 20:15 3,6 C 55 % 1016,4 hPa 0,0 l/m 0,0 km/h (0 Bft) S-SW 196 0 min 0,000 mm 0,0 UV-I 0 W/m -4,6 C 3,6 C 0,0 km/h (0 Bft) 0,00 %
03.04.2015 20:30 3,2 C 58 % 1016,5 hPa 0,0 l/m 0,0 km/h (0 Bft) S-SW 193 0 min 0,000 mm 0,0 UV-I 0 W/m -4,3 C 3,2 C 0,0 km/h (0 Bft) 0,00 %
03.04.2015 20:45 3,0 C 58 % 1016,5 hPa 0,0 l/m 0,0 km/h (0 Bft) S 189 0 min 0,000 mm 0,0 UV-I 0 W/m -4,4 C 3,0 C 0,0 km/h (0 Bft) 0,00 %
03.04.2015 21:00 2,7 C 58 % 1016,6 hPa 0,0 l/m 0,0 km/h (0 Bft) S-SW 195 0 min 0,000 mm 0,0 UV-I 0 W/m -4,7 C 2,7 C 0,0 km/h (0 Bft) 0,00 %
03.04.2015 21:15 2,2 C 59 % 1016,9 hPa 0,0 l/m 0,0 km/h (0 Bft) S 187 0 min 0,000 mm 0,0 UV-I 0 W/m -5,0 C 2,2 C 0,0 km/h (0 Bft) 0,00 %
03.04.2015 21:30 2,0 C 58 % 1016,9 hPa 0,0 l/m 0,0 km/h (0 Bft) S 183 0 min 0,000 mm 0,0 UV-I 0 W/m -5,4 C 2,0 C 0,0 km/h (0 Bft) 0,00 %
03.04.2015 21:45 1,9 C 61 % 1016,8 hPa 0,0 l/m 0,0 km/h (0 Bft) S-SW 203 0 min 0,000 mm 0,0 UV-I 0 W/m -4,8 C 1,9 C 0,0 km/h (0 Bft) 0,00 %
03.04.2015 22:00 1,3 C 65 % 1016,9 hPa 0,0 l/m 0,0 km/h (0 Bft) S 181 0 min 0,000 mm 0,0 UV-I 0 W/m -4,5 C 1,3 C 0,0 km/h (0 Bft) 0,00 %
03.04.2015 22:15 0,8 C 68 % 1017,0 hPa 0,0 l/m 0,0 km/h (0 Bft) S-SW 201 0 min 0,000 mm 0,0 UV-I 0 W/m -4,4 C 0,8 C 0,0 km/h (0 Bft) 0,00 %
03.04.2015 22:30 0,5 C 69 % 1016,9 hPa 0,0 l/m 0,0 km/h (0 Bft) S 172 0 min 0,000 mm 0,0 UV-I 0 W/m -4,5 C 0,5 C 0,0 km/h (0 Bft) 0,00 %
03.04.2015 22:45 1,1 C 66 % 1016,9 hPa 0,0 l/m 0,0 km/h (0 Bft) S-SW 202 0 min 0,000 mm 0,0 UV-I 0 W/m -4,5 C 1,1 C 0,0 km/h (0 Bft) 0,00 %
03.04.2015 23:00 1,1 C 68 % 1016,8 hPa 0,0 l/m 0,0 km/h (0 Bft) S-SW 196 0 min 0,000 mm 0,0 UV-I 0 W/m -4,1 C 1,1 C 0,0 km/h (0 Bft) 0,00 %
03.04.2015 23:15 0,8 C 70 % 1016,7 hPa 0,0 l/m 0,0 km/h (0 Bft) S 190 0 min 0,000 mm 0,0 UV-I 0 W/m -4,0 C 0,8 C 0,0 km/h (0 Bft) 0,00 %
03.04.2015 23:30 0,8 C 69 % 1016,5 hPa 0,0 l/m 0,0 km/h (0 Bft) SW 224 0 min 0,000 mm 0,0 UV-I 0 W/m -4,2 C 0,8 C 0,0 km/h (0 Bft) 0,00 %
03.04.2015 23:45 1,1 C 66 % 1016,4 hPa 0,0 l/m 0,0 km/h (0 Bft) SW 232 0 min 0,000 mm 0,0 UV-I 0 W/m -4,5 C 1,1 C 0,0 km/h (0 Bft) 0,00 %
_ Min-Zeit 05:45 17:30 18:15 - 01:45 - - - - - - 21:30 01:30 01:45 00:00
Minimum _ -0,4 C 38 % 1015,4 hPa - 0,0 km/h (0 Bft) - - - - - - -5,4 C -5,1 C 0,0 km/h (0 Bft) 0,00 %
_ Max-Zeit 17:30 00:00 08:15 00:00 12:30 - - 10:45 00:00 13:00 14:00 00:15 17:30 02:15 00:00
Maximum _ 9,0 C 82 % 1022,9 hPa 0,0 l/m 15,8 km/h
W-SW (3 Bft)
- - 15 min 0,000 mm 6,0 UV-I 818 W/m -2,4 C 9,0 C 19,8 km/h
SW (3 Bft)
0,00 %
Durchschnitt _ 3,5 C 60 % 1019,4 hPa #0,0 l/m 3,4 km/h (1 Bft) W-SW - #7:30 h #0,000 mm 2,3 UV-I 399 W/m -3,9 C 2,9 C 5,7 km/h (1 Bft) 0,00 %